Time;durP1;ratioP1;P1;durP2;ratioP2;P2;SDS_P1;SDS_P2;PMS_P1;PMS_P2;Temp;Humidity;BMP_temperature;BMP_pressure;BME280_temperature;BME280_humidity;BME280_pressure;Samples;Min_cycle;Max_cycle;Signal;HPM_P1;HPM_P2
2023/04/02 00:01:48;;;;;;;7.70;3.28;;;6.10;99.90;;;;;;5075841;28;20044;-39
2023/04/02 00:04:21;;;;;;;6.97;3.63;;;6.00;99.90;;;;;;5078588;28;20063;-39
2023/04/02 00:06:48;;;;;;;8.15;3.10;;;6.00;99.90;;;;;;5072794;28;20544;-37
2023/04/02 00:09:14;;;;;;;5.07;2.70;;;6.00;99.90;;;;;;5073848;28;20068;-38
2023/04/02 00:11:45;;;;;;;7.13;3.00;;;6.00;99.90;;;;;;5076540;28;20151;-38
2023/04/02 00:14:29;;;;;;;8.50;3.30;;;5.90;99.90;;;;;;5072893;28;20043;-37
2023/04/02 00:16:57;;;;;;;7.55;2.92;;;5.90;99.90;;;;;;5075651;28;20080;-38
2023/04/02 00:19:32;;;;;;;6.88;3.10;;;5.80;99.90;;;;;;5077312;28;21972;-39
2023/04/02 00:21:59;;;;;;;6.07;3.10;;;5.70;99.90;;;;;;5074813;28;20494;-38
2023/04/02 00:24:25;;;;;;;6.30;2.50;;;5.70;99.90;;;;;;5079172;28;20770;-40
2023/04/02 00:26:52;;;;;;;8.90;3.47;;;5.70;99.90;;;;;;5060191;28;20055;-39
2023/04/02 00:29:19;;;;;;;5.15;2.85;;;5.70;99.90;;;;;;5078556;28;20055;-38
2023/04/02 00:31:48;;;;;;;8.65;3.28;;;5.70;99.90;;;;;;5078805;28;20520;-39
2023/04/02 00:34:27;;;;;;;5.88;3.05;;;5.60;99.90;;;;;;5075379;28;20486;-38
2023/04/02 00:36:53;;;;;;;5.70;2.78;;;5.60;99.90;;;;;;5071294;28;20056;-37
2023/04/02 00:39:24;;;;;;;6.30;3.10;;;5.60;99.90;;;;;;5082432;28;20455;-39
2023/04/02 00:42:05;;;;;;;9.65;2.95;;;5.60;99.90;;;;;;5077340;28;20051;-39
2023/04/02 00:44:36;;;;;;;8.43;3.10;;;5.60;99.90;;;;;;5075745;28;20044;-39
2023/04/02 00:47:19;;;;;;;7.60;3.75;;;5.60;99.90;;;;;;5071377;28;20606;-39
2023/04/02 00:49:46;;;;;;;8.05;2.75;;;5.60;99.90;;;;;;5074911;28;20083;-38
2023/04/02 00:52:19;;;;;;;5.93;3.10;;;5.60;99.90;;;;;;5075312;28;20692;-39
2023/04/02 00:54:50;;;;;;;7.22;2.83;;;5.50;99.90;;;;;;5075414;28;20051;-47
2023/04/02 00:57:24;;;;;;;8.88;3.13;;;5.50;99.90;;;;;;5069473;28;20075;-39
2023/04/02 00:59:59;;;;;;;5.22;2.88;;;5.50;99.90;;;;;;5075379;28;20060;-40
2023/04/02 01:02:34;;;;;;;7.05;3.20;;;5.50;99.90;;;;;;5075619;28;20520;-38
2023/04/02 01:05:33;;;;;;;7.32;3.80;;;5.50;99.90;;;;;;5075694;28;20076;-38
2023/04/02 01:08:16;;;;;;;4.40;2.50;;;5.40;99.90;;;;;;5064602;28;20044;-38
2023/04/02 01:10:58;;;;;;;6.65;3.13;;;5.40;99.90;;;;;;5071928;28;20423;-38
2023/04/02 01:13:34;;;;;;;6.50;3.05;;;5.40;99.90;;;;;;5069646;28;20139;-38
2023/04/02 01:16:22;;;;;;;7.43;2.70;;;5.40;99.90;;;;;;5076042;28;20051;-39
2023/04/02 01:19:17;;;;;;;9.10;3.17;;;5.30;99.90;;;;;;5073127;28;20057;-45
2023/04/02 01:22:06;;;;;;;6.22;3.08;;;5.30;99.90;;;;;;5074120;28;20058;-38
2023/04/02 01:24:36;;;;;;;4.32;2.45;;;5.30;99.90;;;;;;5071887;28;20048;-38
2023/04/02 01:27:07;;;;;;;5.22;2.65;;;5.30;99.90;;;;;;5076184;28;20047;-38
2023/04/02 01:29:45;;;;;;;6.50;2.58;;;5.30;99.90;;;;;;5074573;28;20044;-38
2023/04/02 01:32:13;;;;;;;5.30;2.60;;;5.30;99.90;;;;;;5070900;28;20067;-38
2023/04/02 01:34:43;;;;;;;5.55;2.45;;;5.20;99.90;;;;;;5074867;28;20064;-39
2023/04/02 01:37:15;;;;;;;5.28;2.40;;;5.20;99.90;;;;;;5065807;28;20083;-39
2023/04/02 01:39:51;;;;;;;5.40;2.53;;;5.20;99.90;;;;;;5070896;28;20093;-37
2023/04/02 01:42:19;;;;;;;6.78;2.70;;;5.20;99.90;;;;;;5075801;28;20566;-37
2023/04/02 01:44:58;;;;;;;6.22;2.47;;;5.20;99.90;;;;;;5074212;28;20052;-37
2023/04/02 01:47:26;;;;;;;5.93;2.20;;;5.20;99.90;;;;;;5067736;28;20135;-38
2023/04/02 01:49:56;;;;;;;5.50;2.40;;;5.10;99.90;;;;;;5075550;28;20501;-37
2023/04/02 01:52:39;;;;;;;4.65;2.40;;;5.10;99.90;;;;;;5071585;28;20498;-37
2023/04/02 01:55:07;;;;;;;5.93;2.90;;;5.10;99.90;;;;;;5073212;28;20048;-37
2023/04/02 01:57:33;;;;;;;5.20;2.40;;;5.10;99.90;;;;;;5077620;28;20309;-38
2023/04/02 02:00:00;;;;;;;7.60;2.72;;;5.10;99.90;;;;;;5075164;28;20056;-38
2023/04/02 02:02:26;;;;;;;7.45;2.30;;;5.10;99.90;;;;;;5072077;28;20408;-37
2023/04/02 02:04:52;;;;;;;7.78;2.83;;;5.10;99.90;;;;;;5080030;28;20588;-37
2023/04/02 02:07:20;;;;;;;5.30;2.10;;;5.00;99.90;;;;;;5079275;28;20059;-37
2023/04/02 02:09:47;;;;;;;6.53;2.97;;;5.00;99.90;;;;;;5077963;28;20442;-37
2023/04/02 02:12:14;;;;;;;3.63;1.77;;;5.00;99.90;;;;;;5078483;28;20059;-37
2023/04/02 02:14:51;;;;;;;4.28;2.10;;;5.00;99.90;;;;;;5078097;28;20169;-39
2023/04/02 02:17:29;;;;;;;4.32;2.13;;;5.00;99.90;;;;;;5079511;28;20039;-39
2023/04/02 02:19:56;;;;;;;4.57;2.25;;;4.90;99.90;;;;;;5059152;28;20052;-37
2023/04/02 02:22:30;;;;;;;7.28;2.17;;;4.90;99.90;;;;;;5077781;28;20049;-39
2023/04/02 02:25:01;;;;;;;5.82;2.13;;;4.80;99.90;;;;;;5079831;28;20055;-37
2023/04/02 02:27:27;;;;;;;5.90;2.17;;;4.80;99.90;;;;;;5081017;28;20048;-37
2023/04/02 02:30:13;;;;;;;4.63;1.65;;;4.70;99.90;;;;;;5077097;28;20056;-37
2023/04/02 02:33:02;;;;;;;5.30;1.73;;;4.60;99.90;;;;;;5077502;28;20575;-37
2023/04/02 02:36:03;;;;;;;4.40;1.80;;;4.50;99.90;;;;;;5067820;28;20105;-37
2023/04/02 02:38:39;;;;;;;6.28;2.00;;;4.40;99.90;;;;;;5077748;28;20412;-38
2023/04/02 02:41:35;;;;;;;5.07;1.80;;;4.20;99.90;;;;;;5074037;28;20048;-38
2023/04/02 02:44:12;;;;;;;3.83;1.65;;;4.10;99.90;;;;;;5073740;28;20056;-37
2023/04/02 02:47:07;;;;;;;2.95;1.45;;;4.00;99.90;;;;;;5075670;28;20727;-37
2023/04/02 02:49:38;;;;;;;4.25;1.75;;;3.90;99.90;;;;;;5071591;28;20044;-38
2023/04/02 02:52:16;;;;;;;4.55;1.50;;;3.80;99.90;;;;;;5076336;28;20071;-41
2023/04/02 02:55:00;;;;;;;3.80;1.60;;;3.70;99.90;;;;;;5078989;28;20056;-52
2023/04/02 02:57:39;;;;;;;4.43;1.55;;;3.70;99.90;;;;;;5072696;28;20052;-38
2023/04/02 03:00:08;;;;;;;5.70;1.75;;;3.60;99.90;;;;;;5076847;28;20150;-37
2023/04/02 03:02:37;;;;;;;3.08;1.50;;;3.50;99.90;;;;;;5074076;28;20368;-38
2023/04/02 03:05:04;;;;;;;8.63;1.35;;;3.50;99.90;;;;;;5081249;28;20143;-37
2023/04/02 03:07:30;;;;;;;3.08;1.40;;;3.40;99.90;;;;;;5080396;28;20761;-37
2023/04/02 03:10:15;;;;;;;4.40;1.50;;;3.30;99.90;;;;;;5078142;28;20052;-38
2023/04/02 03:12:58;;;;;;;3.33;0.95;;;3.30;99.90;;;;;;5081258;28;20406;-37
2023/04/02 03:15:46;;;;;;;5.90;2.25;;;3.30;99.90;;;;;;5074635;28;20056;-37
2023/04/02 03:18:29;;;;;;;4.18;1.20;;;3.20;99.90;;;;;;5076136;28;20052;-45
2023/04/02 03:21:07;;;;;;;4.10;1.58;;;3.10;99.90;;;;;;5076093;28;20052;-39
2023/04/02 03:23:37;;;;;;;5.82;1.30;;;3.10;99.90;;;;;;5078790;28;20082;-38
2023/04/02 03:26:26;;;;;;;6.18;1.45;;;3.00;99.90;;;;;;5075835;28;20040;-39
2023/04/02 03:29:00;;;;;;;5.90;1.42;;;3.00;99.90;;;;;;5073693;28;20051;-38
2023/04/02 03:31:39;;;;;;;4.30;1.20;;;2.90;99.90;;;;;;5078121;28;20059;-38
2023/04/02 03:34:31;;;;;;;4.93;1.25;;;2.90;99.90;;;;;;5072797;28;20063;-38
2023/04/02 03:37:01;;;;;;;4.05;1.70;;;2.80;99.90;;;;;;5071599;28;20048;-38
2023/04/02 03:39:37;;;;;;;4.15;1.67;;;2.80;99.90;;;;;;5076699;28;20049;-38
2023/04/02 03:42:18;;;;;;;4.90;1.50;;;2.80;99.90;;;;;;5075409;28;20052;-38
2023/04/02 03:44:50;;;;;;;3.88;1.50;;;2.70;99.90;;;;;;5072408;28;20135;-38
2023/04/02 03:47:23;;;;;;;5.85;1.88;;;2.70;99.90;;;;;;5076732;28;20067;-38
2023/04/02 03:49:56;;;;;;;4.50;1.50;;;2.60;99.90;;;;;;5056892;28;20502;-38
2023/04/02 03:52:25;;;;;;;3.80;1.40;;;2.60;99.90;;;;;;5072268;28;20671;-38
2023/04/02 03:54:53;;;;;;;4.13;1.38;;;2.50;99.90;;;;;;5071218;28;20063;-38
2023/04/02 03:58:01;;;;;;;4.03;1.35;;;2.50;99.90;;;;;;5075025;28;20520;-38
2023/04/02 04:00:48;;;;;;;4.38;1.42;;;2.50;99.90;;;;;;5074327;28;20053;-38
2023/04/02 04:03:39;;;;;;;5.30;1.65;;;2.40;99.90;;;;;;5073375;28;20052;-38
2023/04/02 04:06:08;;;;;;;7.95;3.08;;;2.40;99.90;;;;;;5041295;28;20123;-38
2023/04/02 04:08:41;;;;;;;4.22;1.70;;;2.40;99.90;;;;;;5077466;28;20750;-38
2023/04/02 04:11:16;;;;;;;8.50;1.30;;;2.30;99.90;;;;;;5073368;28;20039;-38
2023/04/02 04:14:04;;;;;;;4.75;1.25;;;2.30;99.90;;;;;;5075892;28;20139;-38
2023/04/02 04:16:45;;;;;;;6.82;1.90;;;2.30;99.90;;;;;;5076819;28;20393;-38
2023/04/02 04:19:20;;;;;;;5.38;1.42;;;2.20;99.90;;;;;;5072705;28;20371;-38
2023/04/02 04:21:46;;;;;;;4.72;1.27;;;2.20;99.90;;;;;;5074716;28;20048;-38
2023/04/02 04:24:22;;;;;;;3.60;1.65;;;2.30;99.90;;;;;;5071120;28;20044;-38
2023/04/02 04:27:08;;;;;;;3.17;1.52;;;2.30;99.90;;;;;;5074559;28;20054;-39
2023/04/02 04:30:08;;;;;;;3.13;1.17;;;2.30;99.90;;;;;;5074081;28;20048;-39
2023/04/02 04:32:37;;;;;;;3.83;1.60;;;2.30;99.90;;;;;;5077135;28;20055;-38
2023/04/02 04:35:16;;;;;;;3.78;1.58;;;2.30;99.90;;;;;;5077446;28;20069;-38
2023/04/02 04:37:43;;;;;;;4.80;1.30;;;2.40;99.90;;;;;;5075130;28;20109;-38
2023/04/02 04:40:17;;;;;;;4.65;1.40;;;2.40;99.90;;;;;;5077698;28;20054;-38
2023/04/02 04:42:46;;;;;;;3.80;1.30;;;2.40;99.90;;;;;;5074821;28;20047;-39
2023/04/02 04:45:26;;;;;;;5.03;1.25;;;2.40;99.90;;;;;;5075495;28;20474;-38
2023/04/02 04:48:17;;;;;;;4.63;1.33;;;2.50;99.90;;;;;;5074027;28;20059;-38
2023/04/02 04:51:04;;;;;;;4.65;1.50;;;2.40;99.90;;;;;;5071762;28;20059;-38
2023/04/02 04:53:30;;;;;;;8.18;1.33;;;2.50;99.90;;;;;;5070518;28;20071;-38
2023/04/02 04:56:03;;;;;;;4.88;1.25;;;2.50;99.90;;;;;;5073274;28;20044;-38
2023/04/02 04:58:31;;;;;;;;;;;2.50;99.90;;;;;;5073499;28;20059;-38
2023/04/02 05:01:12;;;;;;;3.42;1.13;;;2.50;99.90;;;;;;5069779;28;20338;-38
2023/04/02 05:03:47;;;;;;;3.10;1.33;;;2.60;99.90;;;;;;5076098;28;20056;-38
2023/04/02 05:06:41;;;;;;;6.22;1.85;;;2.60;99.90;;;;;;5071993;28;20044;-38
2023/04/02 05:09:21;;;;;;;5.05;1.45;;;2.60;99.90;;;;;;5070118;28;20062;-38
2023/04/02 05:12:12;;;;;;;5.78;1.48;;;2.60;99.90;;;;;;5069517;28;20049;-38
2023/04/02 05:14:55;;;;;;;5.78;1.50;;;2.60;99.90;;;;;;5035335;28;20117;-38
2023/04/02 05:17:30;;;;;;;5.38;1.30;;;2.60;99.90;;;;;;5072977;28;20067;-41
2023/04/02 05:20:08;;;;;;;5.55;2.08;;;2.60;99.90;;;;;;5074725;28;20052;-43
2023/04/02 05:22:54;;;;;;;3.13;1.08;;;2.60;99.90;;;;;;5073260;28;20426;-40
2023/04/02 05:25:22;;;;;;;4.57;1.20;;;2.60;99.90;;;;;;5073330;28;20053;-42
2023/04/02 05:28:06;;;;;;;5.30;1.20;;;2.60;99.90;;;;;;5062436;28;20051;-41
2023/04/02 05:30:45;;;;;;;4.05;1.00;;;2.60;99.90;;;;;;5070225;28;20059;-42
2023/04/02 05:33:22;;;;;;;6.60;1.30;;;2.60;99.90;;;;;;5075234;28;20083;-41
2023/04/02 05:35:55;;;;;;;2.95;1.17;;;2.50;99.90;;;;;;5074638;28;20867;-41
2023/04/02 05:38:24;;;;;;;3.95;1.17;;;2.50;99.90;;;;;;5072967;28;20060;-42
2023/04/02 05:41:00;;;;;;;3.50;1.20;;;2.50;99.90;;;;;;5060958;28;20134;-41
2023/04/02 05:43:29;;;;;;;5.70;0.98;;;2.60;99.90;;;;;;5080950;28;20048;-42
2023/04/02 05:45:59;;;;;;;3.45;1.40;;;2.60;99.90;;;;;;5079509;28;20048;-43
2023/04/02 05:48:34;;;;;;;5.13;1.15;;;2.60;99.90;;;;;;5073409;28;20490;-41
2023/04/02 05:51:03;;;;;;;4.22;1.00;;;2.60;99.90;;;;;;5074941;28;20056;-42
2023/04/02 05:53:32;;;;;;;3.05;1.08;;;2.60;99.90;;;;;;5078268;28;20056;-42
2023/04/02 05:56:14;;;;;;;3.13;0.80;;;2.60;99.90;;;;;;5079882;28;20545;-40
2023/04/02 05:58:46;;;;;;;2.90;1.38;;;2.60;99.90;;;;;;5062628;28;20514;-41
2023/04/02 06:01:21;;;;;;;5.40;1.10;;;2.60;99.90;;;;;;5072853;28;20043;-40
2023/04/02 06:03:49;;;;;;;6.65;0.98;;;2.60;99.90;;;;;;5071873;28;20052;-48
2023/04/02 06:06:40;;;;;;;3.28;0.80;;;2.60;99.90;;;;;;5076900;28;20052;-42
2023/04/02 06:09:28;;;;;;;4.30;0.98;;;2.60;99.90;;;;;;5076442;28;20071;-37
2023/04/02 06:12:09;;;;;;;4.07;0.93;;;2.70;99.90;;;;;;5076715;28;20482;-37
2023/04/02 06:14:36;;;;;;;5.45;1.10;;;2.70;99.90;;;;;;5077040;28;20878;-37
2023/04/02 06:17:01;;;;;;;4.45;1.05;;;2.70;99.90;;;;;;5078675;28;20119;-36
2023/04/02 06:19:33;;;;;;;4.45;0.95;;;2.70;99.90;;;;;;5071909;28;20382;-35
2023/04/02 06:22:27;;;;;;;5.03;0.93;;;2.70;99.90;;;;;;5079776;28;20506;-41
2023/04/02 06:24:59;;;;;;;2.80;1.10;;;2.80;99.90;;;;;;5065760;28;20139;-42
2023/04/02 06:27:25;;;;;;;;;;;2.90;99.90;;;;;;5082981;28;20051;-41
2023/04/02 06:29:54;;;;;;;3.53;0.82;;;2.80;99.90;;;;;;5075553;28;19920;-41
2023/04/02 06:32:24;;;;;;;2.42;1.00;;;2.90;99.90;;;;;;5078725;28;20056;-43
2023/04/02 06:34:50;;;;;;;5.45;1.17;;;2.90;99.90;;;;;;5076566;28;20062;-42
2023/04/02 06:37:35;;;;;;;2.45;0.80;;;3.00;99.90;;;;;;5059227;28;20048;-41
2023/04/02 06:40:02;;;;;;;3.38;0.80;;;3.10;99.90;;;;;;5078842;28;20688;-41
2023/04/02 06:42:37;;;;;;;3.70;0.88;;;3.10;99.90;;;;;;5065350;28;20055;-41
2023/04/02 06:45:04;;;;;;;1.88;0.82;;;3.10;99.90;;;;;;5078690;28;20059;-42
2023/04/02 06:47:38;;;;;;;7.45;0.95;;;3.20;99.90;;;;;;5076505;28;20051;-37
2023/04/02 06:50:15;;;;;;;4.00;1.10;;;3.20;99.90;;;;;;5077131;28;20072;-37
2023/04/02 06:52:49;;;;;;;3.28;0.70;;;3.20;99.90;;;;;;5079055;28;20505;-37
2023/04/02 06:55:26;;;;;;;6.75;0.85;;;3.30;99.90;;;;;;5076498;28;20055;-37
2023/04/02 06:57:52;;;;;;;1.83;0.57;;;3.30;99.90;;;;;;5076682;28;20147;-37
2023/04/02 07:00:34;;;;;;;4.38;0.88;;;3.30;99.90;;;;;;5072679;28;20136;-37
2023/04/02 07:03:02;;;;;;;;;;;3.30;99.90;;;;;;5076448;28;20082;-36
2023/04/02 07:05:28;;;;;;;3.15;0.70;;;3.30;99.90;;;;;;5057782;28;19986;-36
2023/04/02 07:07:53;;;;;;;2.60;0.90;;;3.30;99.90;;;;;;5073912;28;20551;-36
2023/04/02 07:10:19;;;;;;;2.08;0.73;;;3.20;99.90;;;;;;5073284;28;20176;-36
2023/04/02 07:12:46;;;;;;;4.65;0.93;;;3.30;99.90;;;;;;5057100;28;20044;-36
2023/04/02 07:15:18;;;;;;;2.60;0.85;;;3.30;99.90;;;;;;5074492;28;20172;-37
2023/04/02 07:17:44;;;;;;;2.08;1.05;;;3.20;99.90;;;;;;5074655;28;20053;-37
2023/04/02 07:20:30;;;;;;;5.40;0.98;;;3.20;99.90;;;;;;5071743;28;20055;-37
2023/04/02 07:22:56;;;;;;;4.20;1.10;;;3.20;99.90;;;;;;5074553;28;20405;-37
2023/04/02 07:25:23;;;;;;;1.92;1.02;;;3.20;99.90;;;;;;5074827;28;20051;-37
2023/04/02 07:27:49;;;;;;;4.40;0.93;;;3.20;99.90;;;;;;5075869;28;20060;-42
2023/04/02 07:30:15;;;;;;;3.90;1.45;;;3.20;99.90;;;;;;5077172;28;20568;-37
2023/04/02 07:32:41;;;;;;;3.92;0.93;;;3.30;99.90;;;;;;5073507;28;20062;-37
2023/04/02 07:35:08;;;;;;;3.75;0.98;;;3.30;99.90;;;;;;5073315;28;20084;-37
2023/04/02 07:37:34;;;;;;;3.35;0.85;;;3.40;99.90;;;;;;5080576;28;20105;-37
2023/04/02 07:40:00;;;;;;;2.85;0.88;;;3.40;99.90;;;;;;5074716;28;20044;-37
2023/04/02 07:42:26;;;;;;;2.60;0.68;;;3.50;99.90;;;;;;5076369;28;20063;-38
2023/04/02 07:44:51;;;;;;;3.55;0.80;;;3.50;99.90;;;;;;5079307;28;20391;-41
2023/04/02 07:47:17;;;;;;;2.35;0.63;;;3.40;99.90;;;;;;5074516;28;20056;-42
2023/04/02 07:49:43;;;;;;;2.85;0.55;;;3.50;99.90;;;;;;5073403;28;20397;-47
2023/04/02 07:52:08;;;;;;;4.20;0.85;;;3.50;99.90;;;;;;5076142;28;20074;-45
2023/04/02 07:54:34;;;;;;;2.42;0.60;;;3.60;99.90;;;;;;5076242;28;20202;-44
2023/04/02 07:57:00;;;;;;;3.85;0.63;;;3.60;99.90;;;;;;5082017;28;20466;-44
2023/04/02 07:59:26;;;;;;;1.83;0.60;;;3.60;99.90;;;;;;5078380;28;20656;-44
2023/04/02 08:01:52;;;;;;;2.08;0.80;;;3.70;99.90;;;;;;5080245;28;20056;-38
2023/04/02 08:04:21;;;;;;;1.73;0.73;;;3.70;99.90;;;;;;5076844;28;20064;-38
2023/04/02 08:06:48;;;;;;;4.40;0.75;;;3.70;99.90;;;;;;5078494;28;20059;-37
2023/04/02 08:09:15;;;;;;;2.80;0.60;;;3.70;99.90;;;;;;5076831;28;20556;-37
2023/04/02 08:11:41;;;;;;;4.15;0.80;;;3.80;99.90;;;;;;5078443;28;20079;-37
2023/04/02 08:14:10;;;;;;;3.60;0.70;;;3.80;99.90;;;;;;5072806;28;20139;-37
2023/04/02 08:17:02;;;;;;;5.65;1.00;;;3.90;99.90;;;;;;5077646;28;20044;-37
2023/04/02 08:19:28;;;;;;;2.22;0.65;;;4.00;99.90;;;;;;5066066;28;20183;-37
2023/04/02 08:21:53;;;;;;;4.45;0.68;;;4.10;99.90;;;;;;5068368;28;20052;-37
2023/04/02 08:24:20;;;;;;;4.70;0.65;;;4.30;99.90;;;;;;5071305;28;21326;-37
2023/04/02 08:26:47;;;;;;;1.88;0.45;;;4.40;99.90;;;;;;5079591;28;20052;-37
2023/04/02 08:29:14;;;;;;;2.10;0.52;;;4.50;99.90;;;;;;5074499;28;20048;-37
2023/04/02 08:31:40;;;;;;;1.98;0.60;;;4.70;99.90;;;;;;5058976;28;20494;-37
2023/04/02 08:34:06;;;;;;;2.75;0.70;;;4.90;99.90;;;;;;5054663;28;20063;-37
2023/04/02 08:36:35;;;;;;;2.00;0.40;;;5.00;99.90;;;;;;5075382;28;20502;-37
2023/04/02 08:39:02;;;;;;;1.42;0.50;;;5.20;99.90;;;;;;5076003;28;20047;-37
2023/04/02 08:41:29;;;;;;;5.22;0.40;;;5.30;99.90;;;;;;5074857;28;20048;-37
2023/04/02 08:44:14;;;;;;;4.38;0.50;;;5.40;99.90;;;;;;5073536;28;20055;-36
2023/04/02 08:47:06;;;;;;;2.08;0.40;;;5.40;99.90;;;;;;5074469;28;20056;-37
2023/04/02 08:49:58;;;;;;;1.73;0.50;;;5.40;99.90;;;;;;5075002;28;20417;-37
2023/04/02 08:52:35;;;;;;;3.10;0.40;;;5.50;99.90;;;;;;5070310;28;20059;-37
2023/04/02 08:55:02;;;;;;;3.25;0.50;;;5.60;99.90;;;;;;5073584;28;20117;-38
2023/04/02 08:57:56;;;;;;;2.88;0.50;;;5.70;99.90;;;;;;5067780;28;20671;-37
2023/04/02 09:00:43;;;;;;;3.53;0.50;;;5.70;99.90;;;;;;5073200;28;20171;-37
2023/04/02 09:03:27;;;;;;;3.00;0.60;;;5.70;99.90;;;;;;5077381;28;20414;-37
2023/04/02 09:05:53;;;;;;;1.95;0.50;;;5.70;99.90;;;;;;5074653;28;20055;-37
2023/04/02 09:08:24;;;;;;;6.28;0.50;;;5.90;99.90;;;;;;5070420;28;20052;-37
2023/04/02 09:11:09;;;;;;;2.38;0.43;;;6.00;99.90;;;;;;5079068;28;20481;-37
2023/04/02 09:13:45;;;;;;;2.97;0.43;;;6.10;99.90;;;;;;5076002;28;20147;-37
2023/04/02 09:16:13;;;;;;;2.30;0.40;;;6.20;99.90;;;;;;5086420;28;20056;-37
2023/04/02 09:18:39;;;;;;;3.58;0.40;;;6.30;99.90;;;;;;5083460;28;20058;-37
2023/04/02 09:21:20;;;;;;;2.75;0.90;;;6.40;99.90;;;;;;5085272;28;20094;-42
2023/04/02 09:23:47;;;;;;;3.33;0.52;;;6.50;99.90;;;;;;5081006;28;20047;-41
2023/04/02 09:26:26;;;;;;;3.08;0.47;;;6.60;99.90;;;;;;5081939;28;20409;-40
2023/04/02 09:29:00;;;;;;;2.63;0.30;;;6.60;99.90;;;;;;5085181;28;20047;-41
2023/04/02 09:31:46;;;;;;;2.83;0.55;;;6.70;99.90;;;;;;5081908;28;20586;-41
2023/04/02 09:34:33;;;;;;;3.13;0.60;;;6.60;99.90;;;;;;5084758;28;20052;-41
2023/04/02 09:37:07;;;;;;;2.10;0.50;;;6.70;99.90;;;;;;5084230;28;20509;-41
2023/04/02 09:39:34;;;;;;;2.33;0.50;;;6.60;99.90;;;;;;5087303;28;20133;-43
2023/04/02 09:42:28;;;;;;;2.92;0.50;;;6.60;99.90;;;;;;5081840;28;20472;-43
2023/04/02 09:45:21;;;;;;;1.38;0.40;;;6.70;99.90;;;;;;5082192;28;20127;-44
2023/04/02 09:47:47;;;;;;;5.45;0.57;;;6.80;99.90;;;;;;5089689;28;20459;-40
2023/04/02 09:50:29;;;;;;;2.85;0.40;;;6.90;99.90;;;;;;5078659;28;20056;-45
2023/04/02 09:52:55;;;;;;;2.60;0.40;;;7.00;99.90;;;;;;5063393;28;20606;-43
2023/04/02 09:55:26;;;;;;;3.15;0.40;;;7.10;99.90;;;;;;5082914;28;20151;-43
2023/04/02 09:58:13;;;;;;;2.80;0.40;;;7.20;99.90;;;;;;5086401;28;20689;-44
2023/04/02 10:00:48;;;;;;;4.88;0.52;;;7.30;99.90;;;;;;5082813;28;20056;-42
2023/04/02 10:03:25;;;;;;;2.22;0.43;;;7.30;99.90;;;;;;5082834;28;20560;-46
2023/04/02 10:06:04;;;;;;;4.07;0.90;;;7.40;99.90;;;;;;5085566;28;20673;-42
2023/04/02 10:08:31;;;;;;;1.58;0.40;;;7.50;99.90;;;;;;5084534;28;20048;-45
2023/04/02 10:11:00;;;;;;;1.00;0.30;;;7.60;99.90;;;;;;5082632;28;20545;-43
2023/04/02 10:13:29;;;;;;;2.63;0.60;;;7.60;99.90;;;;;;5080368;28;21923;-43
2023/04/02 10:16:11;;;;;;;1.05;0.30;;;7.70;99.90;;;;;;5079301;28;20063;-38
2023/04/02 10:18:50;;;;;;;3.53;0.70;;;7.80;99.90;;;;;;5081865;28;20109;-37
2023/04/02 10:21:37;;;;;;;3.42;0.80;;;7.90;99.90;;;;;;5081247;28;20302;-38
2023/04/02 10:24:13;;;;;;;4.93;1.13;;;8.00;99.90;;;;;;5087402;28;20516;-41
2023/04/02 10:27:16;;;;;;;2.60;0.50;;;8.20;99.90;;;;;;5081430;28;20075;-38
2023/04/02 10:30:01;;;;;;;1.83;0.50;;;8.30;99.90;;;;;;5083518;28;20516;-38
2023/04/02 10:32:59;;;;;;;2.83;0.38;;;8.40;99.90;;;;;;5082356;28;20136;-37
2023/04/02 10:35:49;;;;;;;2.72;0.30;;;8.40;99.90;;;;;;5079177;28;20078;-37
2023/04/02 10:38:29;;;;;;;2.22;0.40;;;8.40;99.90;;;;;;5076505;28;20048;-36
2023/04/02 10:41:10;;;;;;;2.58;0.30;;;8.40;99.90;;;;;;5077659;28;20048;-38
2023/04/02 10:43:57;;;;;;;1.77;0.40;;;8.50;99.90;;;;;;5073071;28;20052;-38
2023/04/02 10:46:28;;;;;;;3.38;0.30;;;8.60;99.90;;;;;;5070118;28;20079;-36
2023/04/02 10:49:04;;;;;;;2.03;0.50;;;8.70;99.90;;;;;;5079889;28;20600;-36
2023/04/02 10:51:45;;;;;;;2.53;0.60;;;8.80;99.90;;;;;;5078565;28;20704;-36
2023/04/02 10:54:32;;;;;;;3.03;0.47;;;8.90;99.90;;;;;;5082219;28;20048;-41
2023/04/02 10:57:26;;;;;;;2.88;0.50;;;9.00;99.90;;;;;;5071568;28;20072;-40
2023/04/02 11:00:06;;;;;;;1.95;0.43;;;9.00;99.90;;;;;;5078572;28;20147;-42
2023/04/02 11:02:57;;;;;;;3.05;0.60;;;9.10;99.90;;;;;;5071216;28;20048;-44
2023/04/02 11:05:35;;;;;;;2.63;0.40;;;9.20;99.90;;;;;;5071439;28;20068;-45
2023/04/02 11:08:05;;;;;;;5.85;0.80;;;9.20;99.90;;;;;;5075935;28;20054;-42
2023/04/02 11:10:35;;;;;;;3.03;0.82;;;9.30;99.90;;;;;;5074665;28;20047;-43
2023/04/02 11:13:13;;;;;;;2.25;0.50;;;9.30;99.90;;;;;;5068014;28;20056;-41
2023/04/02 11:15:39;;;;;;;4.50;0.43;;;9.40;99.90;;;;;;5075464;28;20052;-44
2023/04/02 11:18:05;;;;;;;2.95;0.40;;;9.50;99.90;;;;;;5075010;28;20056;-42
2023/04/02 11:20:49;;;;;;;1.42;0.20;;;9.60;99.90;;;;;;5078725;28;20048;-43
2023/04/02 11:23:20;;;;;;;0.90;0.28;;;9.70;99.90;;;;;;5076017;28;20044;-42
2023/04/02 11:25:46;;;;;;;3.42;0.40;;;9.70;99.90;;;;;;5079458;28;20059;-45
2023/04/02 11:28:24;;;;;;;1.98;0.38;;;9.70;99.90;;;;;;5075380;28;20048;-42
2023/04/02 11:30:50;;;;;;;2.53;0.55;;;9.80;99.90;;;;;;5076738;28;20075;-41
2023/04/02 11:33:42;;;;;;;1.05;0.38;;;9.90;99.90;;;;;;5073630;28;20048;-41
2023/04/02 11:36:46;;;;;;;2.85;0.43;;;9.90;99.90;;;;;;5071001;28;20466;-42
2023/04/02 11:39:12;;;;;;;1.77;0.40;;;10.00;99.90;;;;;;5056654;28;20075;-43
2023/04/02 11:42:24;;;;;;;1.55;0.30;;;10.10;99.90;;;;;;5081683;28;20477;-40
2023/04/02 11:44:51;;;;;;;2.25;0.50;;;10.10;99.90;;;;;;5072909;28;20441;-44
2023/04/02 11:47:23;;;;;;;1.42;0.30;;;10.10;99.90;;;;;;5074126;28;20044;-42
2023/04/02 11:49:55;;;;;;;1.23;0.20;;;10.20;99.90;;;;;;5074538;28;20174;-45
2023/04/02 11:52:34;;;;;;;2.25;0.38;;;10.40;99.90;;;;;;5074289;28;20559;-43
2023/04/02 11:55:23;;;;;;;2.75;0.50;;;10.50;99.90;;;;;;5077956;28;20444;-41
2023/04/02 11:58:22;;;;;;;2.53;0.38;;;10.60;99.90;;;;;;5077979;28;20052;-42
2023/04/02 12:01:10;;;;;;;3.60;0.43;;;10.80;99.90;;;;;;5074543;28;20078;-42
2023/04/02 12:03:48;;;;;;;1.92;0.30;;;10.90;99.90;;;;;;5081540;28;20051;-45
2023/04/02 12:06:47;;;;;;;4.13;0.55;;;10.90;99.90;;;;;;5074574;28;20509;-46
2023/04/02 12:09:41;;;;;;;0.55;0.30;;;11.00;99.90;;;;;;5076464;28;20067;-46
2023/04/02 12:12:25;;;;;;;3.65;0.40;;;11.00;99.90;;;;;;5072140;28;20052;-43
2023/04/02 12:14:55;;;;;;;3.05;0.30;;;11.10;99.90;;;;;;5077217;28;20105;-43
2023/04/02 12:17:27;;;;;;;5.15;0.50;;;11.20;99.90;;;;;;5076997;28;20047;-44
2023/04/02 12:20:19;;;;;;;2.17;0.30;;;11.30;99.90;;;;;;5075086;28;20569;-45
2023/04/02 12:22:53;;;;;;;2.28;0.40;;;11.40;99.90;;;;;;5080684;28;20142;-42
2023/04/02 12:25:30;;;;;;;1.00;0.40;;;11.50;99.90;;;;;;5080682;28;20159;-44
2023/04/02 12:28:09;;;;;;;1.00;0.40;;;11.70;99.90;;;;;;5075382;28;20058;-44
2023/04/02 12:30:37;;;;;;;2.55;0.50;;;11.80;99.90;;;;;;5075301;28;20048;-43
2023/04/02 12:33:21;;;;;;;2.20;0.50;;;12.00;99.90;;;;;;5072754;28;20536;-44
2023/04/02 12:35:49;;;;;;;2.22;0.38;;;12.10;99.90;;;;;;5081971;28;20527;-46
2023/04/02 12:38:32;;;;;;;1.35;0.35;;;12.30;99.90;;;;;;5070452;28;20183;-44
2023/04/02 12:41:00;;;;;;;0.63;0.20;;;12.50;99.90;;;;;;5074238;28;20044;-42
2023/04/02 12:43:31;;;;;;;2.03;0.40;;;12.60;99.90;;;;;;5078555;28;20048;-44
2023/04/02 12:46:00;;;;;;;1.38;0.30;;;12.70;99.90;;;;;;5076241;28;20075;-40
2023/04/02 12:48:27;;;;;;;2.95;0.40;;;12.70;99.90;;;;;;5071318;28;20044;-44
2023/04/02 12:50:55;;;;;;;1.90;0.43;;;12.90;99.90;;;;;;5073969;28;20040;-45
2023/04/02 12:53:25;;;;;;;1.38;0.38;;;13.20;99.90;;;;;;5072608;28;20750;-44
2023/04/02 12:55:52;;;;;;;2.95;0.30;;;13.60;99.90;;;;;;5076180;28;20050;-44
2023/04/02 12:58:44;;;;;;;1.30;0.40;;;14.10;99.90;;;;;;5068832;28;20054;-42
2023/04/02 13:01:17;;;;;;;1.10;0.40;;;14.40;99.90;;;;;;5074579;28;20489;-42
2023/04/02 13:03:58;;;;;;;0.88;0.30;;;14.80;99.90;;;;;;5079093;28;20056;-43
2023/04/02 13:06:25;;;;;;;1.65;0.32;;;15.10;99.90;;;;;;5078007;28;20920;-43
2023/04/02 13:08:52;;;;;;;2.40;0.43;;;15.50;99.90;;;;;;5081639;28;20055;-42
2023/04/02 13:11:18;;;;;;;1.90;0.40;;;15.90;99.90;;;;;;5075762;28;20048;-43
2023/04/02 13:13:46;;;;;;;1.52;0.30;;;16.10;99.90;;;;;;5070478;28;20066;-46
2023/04/02 13:16:18;;;;;;;1.40;0.30;;;16.50;99.90;;;;;;5076404;28;20065;-43
2023/04/02 13:18:46;;;;;;;1.20;0.30;;;16.60;99.90;;;;;;5076636;28;20070;-44
2023/04/02 13:21:18;;;;;;;1.98;0.43;;;16.90;99.90;;;;;;5075443;28;20490;-42
2023/04/02 13:23:44;;;;;;;3.40;0.68;;;17.00;99.90;;;;;;5080988;28;20086;-41
2023/04/02 13:26:17;;;;;;;1.75;0.30;;;17.00;99.90;;;;;;5073963;28;20568;-43
2023/04/02 13:28:55;;;;;;;1.55;0.30;;;17.10;99.90;;;;;;5077654;28;20526;-42
2023/04/02 13:31:21;;;;;;;1.05;0.30;;;17.40;99.90;;;;;;5076940;28;20048;-43
2023/04/02 13:33:46;;;;;;;2.03;0.57;;;17.90;99.90;;;;;;5077291;28;20048;-38
2023/04/02 13:36:13;;;;;;;1.80;0.35;;;18.20;99.90;;;;;;5078363;28;20520;-37
2023/04/02 13:38:40;;;;;;;2.22;0.32;;;18.60;99.90;;;;;;5073592;28;20060;-38